createdAt,value
2019-03-11T00:00:23.243Z,1009.69
2019-03-11T00:01:23.628Z,1009.70
2019-03-11T00:02:23.300Z,1009.67
2019-03-11T00:03:23.335Z,1009.66
2019-03-11T00:04:23.978Z,1009.68
2019-03-11T00:05:23.406Z,1009.68
2019-03-11T00:06:23.421Z,1009.69
2019-03-11T00:07:23.408Z,1009.71
2019-03-11T00:08:23.884Z,1009.83
2019-03-11T00:10:23.546Z,1009.79
2019-03-11T00:11:23.572Z,1009.83
2019-03-11T00:12:23.547Z,1009.85
2019-03-11T00:13:23.642Z,1009.88
2019-03-11T00:14:23.629Z,1009.94
2019-03-11T00:15:23.996Z,1009.99
2019-03-11T00:16:23.673Z,1009.99
2019-03-11T00:17:23.753Z,1010.01
2019-03-11T00:18:23.727Z,1010.02
2019-03-11T00:19:23.812Z,1010.01
2019-03-11T00:20:23.786Z,1010.02
2019-03-11T00:21:23.826Z,1010.02
2019-03-11T00:22:24.255Z,1010.12
2019-03-11T00:23:23.879Z,1010.18
2019-03-11T00:24:23.960Z,1010.16
2019-03-11T00:25:23.992Z,1010.17
2019-03-11T00:26:23.981Z,1010.23
2019-03-11T00:27:24.003Z,1010.14
2019-03-11T00:28:24.379Z,1010.21
2019-03-11T00:29:24.106Z,1010.26
2019-03-11T00:30:24.095Z,1010.17
2019-03-11T00:31:24.465Z,1010.17
2019-03-11T00:32:24.150Z,1010.22
2019-03-11T00:33:24.230Z,1010.24
2019-03-11T00:34:24.668Z,1010.14
2019-03-11T00:35:24.292Z,1010.11
2019-03-11T00:36:24.314Z,1010.10
2019-03-11T00:37:24.342Z,1010.08
2019-03-11T00:38:24.378Z,1010.08
2019-03-11T00:39:24.457Z,1010.12
2019-03-11T00:40:24.741Z,1010.09
2019-03-11T00:41:24.466Z,1010.02
2019-03-11T00:42:24.498Z,1009.97
2019-03-11T00:43:37.286Z,1010.03
2019-03-11T00:44:24.560Z,1010.00
2019-03-11T00:45:24.633Z,1010.02
2019-03-11T00:46:24.560Z,1009.96
2019-03-11T00:47:24.897Z,1010.04
2019-03-11T00:48:24.676Z,1009.97
2019-03-11T00:49:24.701Z,1010.02
2019-03-11T00:50:24.688Z,1010.01
2019-03-11T00:51:25.146Z,1010.01
2019-03-11T00:52:24.857Z,1010.04
2019-03-11T00:53:24.773Z,1009.98
2019-03-11T00:54:25.159Z,1010.03
2019-03-11T00:55:24.927Z,1009.94
2019-03-11T00:56:24.863Z,1009.91
2019-03-11T00:57:24.893Z,1009.93
2019-03-11T00:58:24.919Z,1009.96
2019-03-11T00:59:24.948Z,1009.93
2019-03-11T01:00:25.038Z,1009.97
2019-03-11T01:01:25.416Z,1009.91
2019-03-11T01:02:25.044Z,1009.90
2019-03-11T01:03:25.128Z,1009.91
2019-03-11T01:04:25.100Z,1009.84
2019-03-11T01:05:25.189Z,1009.88
2019-03-11T01:06:25.211Z,1009.81
2019-03-11T01:07:25.236Z,1009.94
2019-03-11T01:08:25.563Z,1009.91
2019-03-11T01:09:25.300Z,1009.91
2019-03-11T01:10:25.279Z,1009.92
2019-03-11T01:11:25.361Z,1009.91
2019-03-11T01:12:25.337Z,1009.95
2019-03-11T01:13:25.418Z,1010.01
2019-03-11T01:14:25.446Z,1009.95
2019-03-11T01:15:25.775Z,1009.99
2019-03-11T01:16:25.504Z,1010.01
2019-03-11T01:17:25.532Z,1009.93
2019-03-11T01:18:25.564Z,1009.93
2019-03-11T01:19:25.595Z,1009.99
2019-03-11T01:20:25.570Z,1009.88
2019-03-11T01:21:25.652Z,1009.89
2019-03-11T01:22:25.981Z,1009.90
2019-03-11T01:23:25.715Z,1009.90
2019-03-11T01:24:25.736Z,1009.93
2019-03-11T01:25:25.765Z,1009.86
2019-03-11T01:26:25.805Z,1009.79
2019-03-11T01:27:25.834Z,1009.87
2019-03-11T01:28:25.809Z,1009.76
2019-03-11T01:29:26.194Z,1009.79
2019-03-11T01:30:25.872Z,1009.80
2019-03-11T01:31:25.942Z,1009.70
2019-03-11T01:32:25.927Z,1009.73
2019-03-11T01:33:26.005Z,1009.71
2019-03-11T01:34:26.335Z,1009.68
2019-03-11T01:35:26.015Z,1009.68
2019-03-11T01:36:26.402Z,1009.68
2019-03-11T01:37:26.122Z,1009.64
2019-03-11T01:38:26.108Z,1009.58
2019-03-11T01:39:26.186Z,1009.62
2019-03-11T01:40:26.163Z,1009.63
2019-03-11T01:41:26.255Z,1009.58
2019-03-11T01:42:26.224Z,1009.55
2019-03-11T01:43:26.622Z,1009.59
2019-03-11T01:44:26.286Z,1009.56
2019-03-11T01:45:26.361Z,1009.54
2019-03-11T01:46:26.389Z,1009.59
2019-03-11T01:47:26.388Z,1009.56
2019-03-11T01:48:26.460Z,1009.62
2019-03-11T01:49:26.441Z,1009.63
2019-03-11T01:50:26.813Z,1009.68
2019-03-11T01:51:26.652Z,1009.64
2019-03-11T01:52:26.525Z,1009.68
2019-03-11T01:53:26.904Z,1009.65
2019-03-11T01:55:26.672Z,1009.62
2019-03-11T01:56:26.647Z,1009.63
2019-03-11T01:57:27.120Z,1009.62
2019-03-11T01:58:26.715Z,1009.68
2019-03-11T01:59:26.781Z,1009.60
2019-03-11T02:00:26.814Z,1009.56
2019-03-11T02:01:26.785Z,1009.53
2019-03-11T02:02:26.889Z,1009.55
2019-03-11T02:03:26.908Z,1009.52
2019-03-11T02:04:27.182Z,1009.51
2019-03-11T02:05:26.908Z,1009.56
2019-03-11T02:07:26.964Z,1009.55
2019-03-11T02:08:27.044Z,1009.51
2019-03-11T02:09:27.071Z,1009.54
2019-03-11T02:11:27.080Z,1009.53
2019-03-11T02:12:27.465Z,1009.50
2019-03-11T02:13:27.194Z,1009.56
2019-03-11T02:14:27.220Z,1009.54
2019-03-11T02:15:27.249Z,1009.49
2019-03-11T02:16:27.242Z,1009.58
2019-03-11T02:17:27.313Z,1009.53
2019-03-11T02:18:27.345Z,1009.59
2019-03-11T02:19:27.667Z,1009.55
2019-03-11T02:20:27.348Z,1009.58
2019-03-11T02:21:27.375Z,1009.56
2019-03-11T02:22:27.406Z,1009.55
2019-03-11T02:23:27.487Z,1009.60
2019-03-11T02:24:27.467Z,1009.60
2019-03-11T02:25:27.495Z,1009.62
2019-03-11T02:26:27.823Z,1009.58
2019-03-11T02:27:27.550Z,1009.60
2019-03-11T02:28:27.577Z,1009.57
2019-03-11T02:29:27.661Z,1009.54
2019-03-11T02:30:27.645Z,1009.62
2019-03-11T02:31:27.685Z,1009.54
2019-03-11T02:32:28.781Z,1009.57
2019-03-11T02:33:28.090Z,1009.55
2019-03-11T02:34:27.807Z,1009.57
2019-03-11T02:35:27.792Z,1009.49
2019-03-11T02:36:27.832Z,1009.44
2019-03-11T02:37:27.898Z,1009.36
2019-03-11T02:38:27.893Z,1009.36
2019-03-11T02:39:27.959Z,1009.40
2019-03-11T02:40:28.239Z,1009.42
2019-03-11T02:41:27.967Z,1009.39
2019-03-11T02:42:28.045Z,1009.41
2019-03-11T02:43:28.025Z,1009.33
2019-03-11T02:45:28.149Z,1009.42
2019-03-11T02:46:28.459Z,1009.40
2019-03-11T02:47:28.202Z,1009.36
2019-03-11T02:48:28.176Z,1009.39
2019-03-11T02:49:28.260Z,1009.38
2019-03-11T02:50:28.232Z,1009.45
2019-03-11T02:51:28.355Z,1009.39
2019-03-11T02:52:28.642Z,1009.37
2019-03-11T02:53:28.338Z,1009.41
2019-03-11T02:54:28.495Z,1009.46
2019-03-11T02:55:28.431Z,1009.48
2019-03-11T02:56:28.461Z,1009.46
2019-03-11T02:57:28.446Z,1009.45
2019-03-11T02:58:28.835Z,1009.45
2019-03-11T02:59:28.545Z,1009.48
2019-03-11T03:00:28.573Z,1009.49
2019-03-11T03:01:28.615Z,1009.43
2019-03-11T03:02:28.655Z,1009.43
2019-03-11T03:03:28.700Z,1009.43
2019-03-11T03:04:28.692Z,1009.39
2019-03-11T03:05:29.022Z,1009.35
2019-03-11T03:06:28.697Z,1009.40
2019-03-11T03:07:28.789Z,1009.35
2019-03-11T03:08:28.764Z,1009.32
2019-03-11T03:09:31.694Z,1009.29
2019-03-11T03:10:28.828Z,1009.32
2019-03-11T03:11:28.911Z,1009.30
2019-03-11T03:12:29.231Z,1009.32
2019-03-11T03:13:28.917Z,1009.30
2019-03-11T03:14:29.030Z,1009.34
2019-03-11T03:15:28.969Z,1009.34
2019-03-11T03:16:29.061Z,1009.30
2019-03-11T03:17:29.081Z,1009.33
2019-03-11T03:18:29.118Z,1009.36
2019-03-11T03:19:29.463Z,1009.34
2019-03-11T03:20:29.111Z,1009.35
2019-03-11T03:21:29.165Z,1009.30
2019-03-11T03:22:29.241Z,1009.34
2019-03-11T03:23:29.320Z,1009.38
2019-03-11T03:24:29.233Z,1009.35
2019-03-11T03:25:34.422Z,1009.39
2019-03-11T03:26:29.639Z,1009.40
2019-03-11T03:27:29.387Z,1009.40
2019-03-11T03:28:29.397Z,1009.38
2019-03-11T03:29:29.438Z,1009.37
2019-03-11T03:30:29.490Z,1009.34
2019-03-11T03:31:29.509Z,1009.38
2019-03-11T03:32:29.531Z,1009.39
2019-03-11T03:33:29.905Z,1009.39
2019-03-11T03:34:29.528Z,1009.44
2019-03-11T03:35:29.607Z,1009.44
2019-03-11T03:36:29.586Z,1009.45
2019-03-11T03:37:29.614Z,1009.38
2019-03-11T03:38:31.344Z,1009.43
2019-03-11T03:39:29.733Z,1009.50
2019-03-11T03:40:30.052Z,1009.47
2019-03-11T03:41:29.788Z,1009.51
2019-03-11T03:42:29.762Z,1009.49
2019-03-11T03:43:30.004Z,1009.47
2019-03-11T03:44:29.834Z,1009.47
2019-03-11T03:45:29.850Z,1009.53
2019-03-11T03:46:29.945Z,1009.53
2019-03-11T03:47:30.281Z,1009.47
2019-03-11T03:48:30.118Z,1009.48
2019-03-11T03:49:29.975Z,1009.49
2019-03-11T03:50:30.056Z,1009.45
2019-03-11T03:51:30.027Z,1009.39
2019-03-11T03:52:30.057Z,1009.54
2019-03-11T03:53:30.161Z,1009.57
2019-03-11T03:54:30.429Z,1009.60
2019-03-11T03:56:30.179Z,1009.66
2019-03-11T03:57:30.205Z,1009.65
2019-03-11T03:58:30.321Z,1009.68
2019-03-11T03:59:30.314Z,1009.61
2019-03-11T04:00:30.293Z,1009.64
2019-03-11T04:01:30.678Z,1009.63
2019-03-11T04:02:30.378Z,1009.60
2019-03-11T04:03:30.401Z,1009.62
2019-03-11T04:04:30.454Z,1009.61
2019-03-11T04:05:30.451Z,1009.57
2019-03-11T04:06:30.467Z,1009.62
2019-03-11T04:07:30.506Z,1009.61
2019-03-11T04:08:30.881Z,1009.61
2019-03-11T04:09:30.606Z,1009.65
2019-03-11T04:10:32.746Z,1009.66
2019-03-11T04:11:30.674Z,1009.69
2019-03-11T04:12:30.650Z,1009.70
2019-03-11T04:13:30.730Z,1009.77
2019-03-11T04:14:30.703Z,1009.78
2019-03-11T04:15:31.037Z,1009.76
2019-03-11T04:16:30.808Z,1009.77
2019-03-11T04:17:30.849Z,1009.78
2019-03-11T04:18:30.818Z,1009.74
2019-03-11T04:19:30.846Z,1009.81
2019-03-11T04:20:30.896Z,1009.79
2019-03-11T04:21:30.958Z,1009.71
2019-03-11T04:22:31.301Z,1009.78
2019-03-11T04:23:31.025Z,1009.79
2019-03-11T04:24:30.999Z,1009.74
2019-03-11T04:25:31.044Z,1009.78
2019-03-11T04:26:31.109Z,1009.84
2019-03-11T04:27:31.155Z,1009.75
2019-03-11T04:28:31.114Z,1009.73
2019-03-11T04:29:31.493Z,1009.81
2019-03-11T04:30:31.187Z,1009.79
2019-03-11T04:31:31.253Z,1009.78
2019-03-11T04:32:31.237Z,1009.79
2019-03-11T04:33:31.314Z,1009.79
2019-03-11T04:34:31.334Z,1009.87
2019-03-11T04:35:31.397Z,1009.80
2019-03-11T04:36:31.711Z,1009.82
2019-03-11T04:37:31.395Z,1009.81
2019-03-11T04:38:31.459Z,1009.84
2019-03-11T04:39:31.593Z,1009.88
2019-03-11T04:40:31.518Z,1009.92
2019-03-11T04:41:31.497Z,1009.88
2019-03-11T04:43:31.903Z,1010.04
2019-03-11T04:44:31.636Z,1010.01
2019-03-11T04:45:31.663Z,1010.06
2019-03-11T04:46:31.644Z,1009.89
2019-03-11T04:47:31.671Z,1010.04
2019-03-11T04:48:31.752Z,1010.00
2019-03-11T04:49:32.087Z,1009.97
2019-03-11T04:50:31.763Z,1009.92
2019-03-11T04:51:31.836Z,1009.86
2019-03-11T04:52:31.842Z,1009.89
2019-03-11T04:53:31.899Z,1009.88
2019-03-11T04:54:32.138Z,1009.95
2019-03-11T04:55:32.276Z,1009.85
2019-03-11T04:56:31.943Z,1009.85
2019-03-11T04:57:32.094Z,1009.85
2019-03-11T04:58:31.995Z,1009.87
2019-03-11T04:59:32.044Z,1009.82
2019-03-11T05:00:32.109Z,1009.84
2019-03-11T05:01:32.438Z,1009.88
2019-03-11T05:02:32.165Z,1009.94
2019-03-11T05:03:32.141Z,1009.91
2019-03-11T05:04:32.227Z,1009.93
2019-03-11T05:05:32.253Z,1009.87
2019-03-11T05:06:32.233Z,1009.91
2019-03-11T05:07:32.313Z,1009.86
2019-03-11T05:09:32.639Z,1009.91
2019-03-11T05:10:32.403Z,1009.90
2019-03-11T05:11:32.427Z,1009.91
2019-03-11T05:12:32.421Z,1009.91
2019-03-11T05:13:32.491Z,1009.94
2019-03-11T05:14:32.466Z,1009.93
2019-03-11T05:16:32.584Z,1009.88
2019-03-11T05:18:32.974Z,1009.95
2019-03-11T05:19:32.614Z,1009.95
2019-03-11T05:20:32.650Z,1009.96
2019-03-11T05:21:32.727Z,1009.95
2019-03-11T05:23:32.728Z,1010.01
2019-03-11T05:24:33.116Z,1009.99
2019-03-11T05:25:32.861Z,1010.06
2019-03-11T05:26:32.873Z,1010.07
2019-03-11T05:27:32.868Z,1010.04
2019-03-11T05:28:32.934Z,1010.04
2019-03-11T05:29:32.958Z,1010.08
2019-03-11T05:30:33.230Z,1010.11
2019-03-11T05:31:32.977Z,1010.07
2019-03-11T05:32:32.993Z,1010.11
2019-03-11T05:33:33.086Z,1010.15
2019-03-11T05:34:33.066Z,1010.12
2019-03-11T05:35:33.096Z,1010.15
2019-03-11T05:36:33.122Z,1010.14
2019-03-11T05:38:33.518Z,1010.37
2019-03-11T05:39:33.244Z,1010.44
2019-03-11T05:40:33.279Z,1010.36
2019-03-11T05:41:33.368Z,1010.45
2019-03-11T05:42:33.340Z,1010.34
2019-03-11T05:43:33.362Z,1010.49
2019-03-11T05:44:33.400Z,1010.50
2019-03-11T05:46:33.758Z,1010.58
2019-03-11T05:47:33.444Z,1010.56
2019-03-11T05:48:33.465Z,1010.62
2019-03-11T05:49:33.654Z,1010.58
2019-03-11T05:50:33.518Z,1010.57
2019-03-11T05:51:33.602Z,1010.58
2019-03-11T05:52:33.885Z,1010.55
2019-03-11T05:53:33.606Z,1010.54
2019-03-11T05:54:33.688Z,1010.53
2019-03-11T05:55:33.661Z,1010.55
2019-03-11T05:56:33.748Z,1010.55
2019-03-11T05:57:33.726Z,1010.55
2019-03-11T05:58:33.803Z,1010.59
2019-03-11T05:59:33.787Z,1010.63
2019-03-11T06:00:33.863Z,1010.58
2019-03-11T06:01:33.898Z,1010.59
2019-03-11T06:02:36.434Z,1010.60
2019-03-11T06:03:33.951Z,1010.65
2019-03-11T06:04:33.991Z,1010.61
2019-03-11T06:05:34.306Z,1010.67
2019-03-11T06:06:34.043Z,1010.57
2019-03-11T06:07:34.013Z,1010.58
2019-03-11T06:08:34.055Z,1010.53
2019-03-11T06:09:34.079Z,1010.51
2019-03-11T06:10:34.157Z,1010.56
2019-03-11T06:11:34.183Z,1010.58
2019-03-11T06:12:34.464Z,1010.56
2019-03-11T06:13:36.183Z,1010.56
2019-03-11T06:14:34.279Z,1010.60
2019-03-11T06:17:34.421Z,1010.56
2019-03-11T06:18:34.392Z,1010.55
2019-03-11T06:19:34.715Z,1010.60
2019-03-11T06:20:34.402Z,1010.61
2019-03-11T06:21:34.453Z,1010.58
2019-03-11T06:22:34.461Z,1010.58
2019-03-11T06:23:34.538Z,1010.60
2019-03-11T06:24:34.560Z,1010.60
2019-03-11T06:25:34.595Z,1010.52
2019-03-11T06:26:34.571Z,1010.54
2019-03-11T06:27:34.650Z,1010.53
2019-03-11T06:28:34.631Z,1010.53
2019-03-11T06:29:34.723Z,1010.54
2019-03-11T06:30:34.748Z,1010.61
2019-03-11T06:31:34.770Z,1010.60
2019-03-11T06:32:34.748Z,1010.59
2019-03-11T06:34:34.867Z,1010.65
2019-03-11T06:35:34.840Z,1010.61
2019-03-11T06:36:34.870Z,1010.58
2019-03-11T06:37:34.893Z,1010.61
2019-03-11T06:38:35.225Z,1010.66
2019-03-11T06:39:34.952Z,1010.67
2019-03-11T06:40:35.031Z,1010.63
2019-03-11T06:41:35.059Z,1010.68
2019-03-11T06:42:35.044Z,1010.56
2019-03-11T06:43:35.116Z,1010.63
2019-03-11T06:44:35.099Z,1010.63
2019-03-11T06:45:35.182Z,1010.64
2019-03-11T06:46:35.177Z,1010.80
2019-03-11T06:47:35.233Z,1010.73
2019-03-11T06:48:35.248Z,1010.85
2019-03-11T06:49:35.312Z,1010.73
2019-03-11T06:50:35.355Z,1010.84
2019-03-11T06:52:35.392Z,1010.83
2019-03-11T06:54:35.390Z,1010.82
2019-03-11T06:55:35.493Z,1010.91
2019-03-11T06:57:35.534Z,1010.96
2019-03-11T06:58:35.507Z,1011.00
2019-03-11T06:59:35.580Z,1011.03
2019-03-11T07:00:35.572Z,1010.99
2019-03-11T07:01:35.643Z,1011.09
2019-03-11T07:02:35.923Z,1011.04
2019-03-11T07:03:35.652Z,1011.04
2019-03-11T07:04:35.746Z,1011.10
2019-03-11T07:05:35.792Z,1011.12
2019-03-11T07:06:35.735Z,1011.09
2019-03-11T07:07:35.836Z,1011.09
2019-03-11T07:08:35.793Z,1011.15
2019-03-11T07:09:35.843Z,1011.10
2019-03-11T07:10:35.951Z,1011.11
2019-03-11T07:11:35.986Z,1011.13
2019-03-11T07:12:35.921Z,1011.09
2019-03-11T07:13:36.001Z,1011.08
2019-03-11T07:14:35.986Z,1011.10
2019-03-11T07:15:36.385Z,1011.17
2019-03-11T07:16:36.084Z,1011.18
2019-03-11T07:17:36.105Z,1011.19
2019-03-11T07:19:36.113Z,1011.15
2019-03-11T07:20:36.145Z,1011.26
2019-03-11T07:21:36.231Z,1011.25
2019-03-11T07:22:36.214Z,1011.27
2019-03-11T07:23:36.283Z,1011.24
2019-03-11T07:24:36.269Z,1011.26
2019-03-11T07:25:36.291Z,1011.23
2019-03-11T07:26:36.368Z,1011.33
2019-03-11T07:27:36.343Z,1011.25
2019-03-11T07:28:36.425Z,1011.23
2019-03-11T07:29:36.412Z,1011.23
2019-03-11T07:30:36.483Z,1011.31
2019-03-11T07:31:36.510Z,1011.23
2019-03-11T07:32:36.496Z,1011.20
2019-03-11T07:33:36.575Z,1011.26
2019-03-11T07:34:36.548Z,1011.26
2019-03-11T07:35:36.632Z,1011.38
2019-03-11T07:36:36.609Z,1011.34
2019-03-11T07:37:36.693Z,1011.44
2019-03-11T07:38:36.666Z,1011.41
2019-03-11T07:39:37.058Z,1011.36
2019-03-11T07:41:36.805Z,1011.41
2019-03-11T07:42:36.782Z,1011.44
2019-03-11T07:43:36.867Z,1011.37
2019-03-11T07:44:36.849Z,1011.44
2019-03-11T07:45:36.946Z,1011.45
2019-03-11T07:46:37.205Z,1011.47
2019-03-11T07:47:36.985Z,1011.48
2019-03-11T07:48:36.962Z,1011.56
2019-03-11T07:49:36.992Z,1011.52
2019-03-11T07:50:37.073Z,1011.58
2019-03-11T07:51:37.056Z,1011.56
2019-03-11T07:52:37.143Z,1011.58
2019-03-11T07:53:37.455Z,1011.71
2019-03-11T07:54:37.187Z,1011.66
2019-03-11T07:55:37.169Z,1011.70
2019-03-11T07:56:37.191Z,1011.57
2019-03-11T07:57:37.227Z,1011.60
2019-03-11T07:58:37.260Z,1011.63
2019-03-11T07:59:37.404Z,1011.66
2019-03-11T08:00:37.662Z,1011.67
2019-03-11T08:01:37.394Z,1011.74
2019-03-11T08:02:37.377Z,1011.70
2019-03-11T08:03:37.454Z,1011.78
2019-03-11T08:04:37.480Z,1011.78
2019-03-11T08:05:37.516Z,1011.83
2019-03-11T08:06:37.491Z,1011.81
2019-03-11T08:07:37.877Z,1011.75
2019-03-11T08:08:37.549Z,1011.90
2019-03-11T08:09:38.492Z,1011.90
2019-03-11T08:10:37.608Z,1011.85
2019-03-11T08:11:37.678Z,1011.88
2019-03-11T08:12:37.721Z,1011.89
2019-03-11T08:13:37.745Z,1011.92
2019-03-11T08:14:38.024Z,1012.04
2019-03-11T08:15:37.798Z,1011.94
2019-03-11T08:16:37.784Z,1011.98
2019-03-11T08:17:37.865Z,1011.96
2019-03-11T08:18:37.842Z,1011.99
2019-03-11T08:19:37.919Z,1011.94
2019-03-11T08:20:37.949Z,1011.94
2019-03-11T08:21:38.277Z,1011.98
2019-03-11T08:22:37.960Z,1011.99
2019-03-11T08:23:38.039Z,1011.95
2019-03-11T08:24:38.012Z,1012.04
2019-03-11T08:25:38.092Z,1012.03
2019-03-11T08:26:38.089Z,1012.08
2019-03-11T08:27:38.110Z,1012.07
2019-03-11T08:28:38.181Z,1012.02
2019-03-11T08:29:38.159Z,1012.07
2019-03-11T08:30:38.245Z,1012.17
2019-03-11T08:32:38.309Z,1012.14
2019-03-11T08:33:38.574Z,1012.18
2019-03-11T08:34:38.315Z,1012.06
2019-03-11T08:35:38.500Z,1012.12
2019-03-11T08:36:38.372Z,1012.15
2019-03-11T08:37:38.440Z,1012.19
2019-03-11T08:38:38.425Z,1012.27
2019-03-11T08:39:38.813Z,1012.33
2019-03-11T08:40:38.536Z,1012.35
2019-03-11T08:41:38.560Z,1012.39
2019-03-11T08:42:38.535Z,1012.33
2019-03-11T08:43:38.572Z,1012.40
2019-03-11T08:44:38.660Z,1012.30
2019-03-11T08:45:38.686Z,1012.37
2019-03-11T08:46:38.962Z,1012.32
2019-03-11T08:47:38.742Z,1012.34
2019-03-11T08:48:38.711Z,1012.27
2019-03-11T08:49:38.745Z,1012.41
2019-03-11T08:52:38.879Z,1012.39
2019-03-11T08:53:38.911Z,1012.33
2019-03-11T08:54:38.886Z,1012.40
2019-03-11T08:55:38.976Z,1012.44
2019-03-11T08:56:38.946Z,1012.41
2019-03-11T08:57:40.360Z,1012.46
2019-03-11T08:58:39.002Z,1012.48
2019-03-11T08:59:39.406Z,1012.47
2019-03-11T09:00:39.069Z,1012.40
2019-03-11T09:01:39.113Z,1012.38
2019-03-11T09:02:39.184Z,1012.48
2019-03-11T09:03:39.169Z,1012.54
2019-03-11T09:04:39.242Z,1012.43
2019-03-11T09:05:39.273Z,1012.50
2019-03-11T09:06:39.596Z,1012.52
2019-03-11T09:07:39.278Z,1012.45
2019-03-11T09:08:39.368Z,1012.47
2019-03-11T09:09:39.383Z,1012.61
2019-03-11T09:10:39.362Z,1012.56
2019-03-11T09:11:39.438Z,1012.58
2019-03-11T09:12:39.419Z,1012.56
2019-03-11T09:13:39.753Z,1012.62
2019-03-11T09:14:39.545Z,1012.67
2019-03-11T09:15:39.510Z,1012.66
2019-03-11T09:16:39.601Z,1012.61
2019-03-11T09:17:39.626Z,1012.62
2019-03-11T09:18:39.616Z,1012.64
2019-03-11T09:19:39.637Z,1012.63
2019-03-11T09:20:40.015Z,1012.62
2019-03-11T09:21:39.757Z,1012.69
2019-03-11T09:22:39.723Z,1012.57
2019-03-11T09:23:39.802Z,1012.67
2019-03-11T09:24:39.789Z,1012.75
2019-03-11T09:25:39.810Z,1012.73
2019-03-11T09:26:39.886Z,1012.70
2019-03-11T09:27:40.208Z,1012.71
2019-03-11T09:28:39.899Z,1012.74
2019-03-11T09:29:39.974Z,1012.68
2019-03-11T09:30:39.953Z,1012.74
2019-03-11T09:31:39.969Z,1012.74
2019-03-11T09:32:40.056Z,1012.75
2019-03-11T09:33:40.086Z,1012.71
2019-03-11T09:34:40.114Z,1012.65
2019-03-11T09:35:40.142Z,1012.67
2019-03-11T09:36:40.175Z,1012.66
2019-03-11T09:37:40.200Z,1012.66
2019-03-11T09:38:40.224Z,1012.75
2019-03-11T09:39:40.260Z,1012.67
2019-03-11T09:40:40.590Z,1012.77
2019-03-11T09:41:40.320Z,1012.69
2019-03-11T09:42:40.304Z,1012.78
2019-03-11T09:43:40.377Z,1012.83
2019-03-11T09:44:40.366Z,1012.88
2019-03-11T09:45:40.388Z,1012.88
2019-03-11T09:46:40.411Z,1012.80
2019-03-11T09:47:40.494Z,1012.80
2019-03-11T09:48:40.528Z,1012.77
2019-03-11T09:49:40.559Z,1012.81
2019-03-11T09:50:40.591Z,1012.86
2019-03-11T09:51:40.607Z,1012.82
2019-03-11T09:52:40.940Z,1012.87
2019-03-11T09:53:40.673Z,1012.92
2019-03-11T09:54:40.642Z,1012.84
2019-03-11T09:55:40.772Z,1012.85
2019-03-11T09:57:40.758Z,1012.84
2019-03-11T09:58:40.816Z,1012.89
2019-03-11T09:59:41.141Z,1012.91
2019-03-11T10:00:41.766Z,1012.90
2019-03-11T10:01:40.855Z,1012.91
2019-03-11T10:02:51.622Z,1012.96
2019-03-11T10:03:40.959Z,1013.03
2019-03-11T10:04:40.957Z,1012.99
2019-03-11T10:05:40.973Z,1012.97
2019-03-11T10:06:41.354Z,1012.98
2019-03-11T10:07:41.178Z,1013.13
2019-03-11T10:08:41.169Z,1013.05
2019-03-11T10:09:41.133Z,1013.08
2019-03-11T10:10:41.120Z,1013.07
2019-03-11T10:11:41.214Z,1013.13
2019-03-11T10:12:41.175Z,1013.21
2019-03-11T10:13:41.562Z,1013.09
2019-03-11T10:14:41.235Z,1013.12
2019-03-11T10:15:41.262Z,1013.19
2019-03-11T10:16:41.346Z,1013.26
2019-03-11T10:17:41.378Z,1013.21
2019-03-11T10:18:41.401Z,1013.23
2019-03-11T10:19:41.432Z,1013.18
2019-03-11T10:20:41.762Z,1013.18
2019-03-11T10:21:41.497Z,1013.24
2019-03-11T10:22:41.587Z,1013.22
2019-03-11T10:23:41.545Z,1013.23
2019-03-11T10:24:41.583Z,1013.23
2019-03-11T10:25:41.555Z,1013.28
2019-03-11T10:26:41.643Z,1013.34
2019-03-11T10:27:41.971Z,1013.31
2019-03-11T10:28:41.690Z,1013.28
2019-03-11T10:29:41.728Z,1013.23
2019-03-11T10:30:41.699Z,1013.25
2019-03-11T10:31:41.791Z,1013.25
2019-03-11T10:32:41.777Z,1013.23
2019-03-11T10:33:41.839Z,1013.37
2019-03-11T10:34:42.175Z,1013.48
2019-03-11T10:35:41.849Z,1013.53
2019-03-11T10:36:41.926Z,1013.56
2019-03-11T10:37:41.908Z,1013.51
2019-03-11T10:38:41.954Z,1013.39
2019-03-11T10:39:42.018Z,1013.42
2019-03-11T10:40:42.008Z,1013.43
2019-03-11T10:41:42.408Z,1013.36
2019-03-11T10:42:42.058Z,1013.35
2019-03-11T10:43:42.087Z,1013.42
2019-03-11T10:44:42.180Z,1013.30
2019-03-11T10:45:42.144Z,1013.32
2019-03-11T10:47:42.249Z,1013.34
2019-03-11T10:48:42.586Z,1013.39
2019-03-11T10:49:42.304Z,1013.37
2019-03-11T10:50:42.317Z,1013.42
2019-03-11T10:51:42.367Z,1013.46
2019-03-11T10:52:42.346Z,1013.47
2019-03-11T10:53:42.398Z,1013.48
2019-03-11T10:54:42.455Z,1013.56
2019-03-11T10:55:42.790Z,1013.54
2019-03-11T10:56:42.468Z,1013.57
2019-03-11T10:57:42.498Z,1013.54
2019-03-11T10:58:42.574Z,1013.59
2019-03-11T10:59:42.607Z,1013.62
2019-03-11T11:00:42.586Z,1013.61
2019-03-11T11:01:42.666Z,1013.67
2019-03-11T11:02:42.992Z,1013.72
2019-03-11T11:03:42.677Z,1013.78
2019-03-11T11:04:42.752Z,1013.71
2019-03-11T11:05:42.785Z,1013.76
2019-03-11T11:06:42.758Z,1013.80
2019-03-11T11:07:42.787Z,1013.82
2019-03-11T11:08:42.819Z,1013.84
2019-03-11T11:09:43.199Z,1013.79
2019-03-11T11:10:42.887Z,1013.78
2019-03-11T11:11:42.959Z,1013.68
2019-03-11T11:12:42.933Z,1013.76
2019-03-11T11:13:43.041Z,1013.77
2019-03-11T11:14:43.064Z,1013.80
2019-03-11T11:15:43.074Z,1013.82
2019-03-11T11:16:43.379Z,1013.80
2019-03-11T11:17:43.134Z,1013.67
2019-03-11T11:18:43.113Z,1013.69
2019-03-11T11:19:43.193Z,1013.70
2019-03-11T11:20:43.188Z,1013.72
2019-03-11T11:21:43.254Z,1013.70
2019-03-11T11:22:43.233Z,1013.71
2019-03-11T11:23:43.616Z,1013.72
2019-03-11T11:24:43.344Z,1013.74
2019-03-11T11:25:43.374Z,1013.75
2019-03-11T11:26:43.404Z,1013.78
2019-03-11T11:27:43.439Z,1013.79
2019-03-11T11:28:43.567Z,1013.83
2019-03-11T11:29:43.445Z,1013.79
2019-03-11T11:30:43.773Z,1013.77
2019-03-11T11:31:43.544Z,1013.80
2019-03-11T11:32:43.538Z,1013.76
2019-03-11T11:33:43.646Z,1013.79
2019-03-11T11:34:43.591Z,1013.83
2019-03-11T11:35:43.617Z,1013.79
2019-03-11T11:36:43.697Z,1013.83
2019-03-11T11:37:44.030Z,1013.77
2019-03-11T11:38:43.711Z,1013.77
2019-03-11T11:39:43.782Z,1013.76
2019-03-11T11:40:43.818Z,1013.76
2019-03-11T11:41:43.804Z,1013.85
2019-03-11T11:42:43.877Z,1013.72
2019-03-11T11:43:43.904Z,1013.75
2019-03-11T11:44:43.891Z,1013.78
2019-03-11T11:45:43.970Z,1013.79
2019-03-11T11:46:43.940Z,1013.72
2019-03-11T11:47:44.023Z,1013.75
2019-03-11T11:49:44.081Z,1013.72
2019-03-11T11:50:44.416Z,1013.67
2019-03-11T11:51:44.162Z,1013.77
2019-03-11T11:52:44.119Z,1013.70
2019-03-11T11:53:44.298Z,1013.83
2019-03-11T11:54:44.183Z,1013.78
2019-03-11T11:55:44.261Z,1013.81
2019-03-11T11:56:44.550Z,1013.83
2019-03-11T11:57:44.326Z,1013.83
2019-03-11T11:58:44.305Z,1013.82
2019-03-11T11:59:53.765Z,1013.82
2019-03-11T12:00:44.407Z,1013.85
2019-03-11T12:01:44.390Z,1013.96
2019-03-11T12:02:44.723Z,1013.93
2019-03-11T12:03:44.457Z,1013.92
2019-03-11T12:04:44.525Z,1013.97
2019-03-11T12:05:44.506Z,1013.85
2019-03-11T12:06:44.547Z,1013.89
2019-03-11T12:07:44.631Z,1014.01
2019-03-11T12:08:44.602Z,1013.94
2019-03-11T12:10:45.008Z,1013.98
2019-03-11T12:11:44.739Z,1014.00
2019-03-11T12:12:44.865Z,1013.98
2019-03-11T12:13:44.819Z,1013.99
2019-03-11T12:14:44.779Z,1014.00
2019-03-11T12:15:44.866Z,1014.16
2019-03-11T12:16:44.837Z,1014.12
2019-03-11T12:17:45.223Z,1014.08
2019-03-11T12:18:44.962Z,1014.14
2019-03-11T12:20:44.962Z,1014.00
2019-03-11T12:21:45.001Z,1014.15
2019-03-11T12:22:45.028Z,1014.04
2019-03-11T12:23:46.687Z,1014.12
2019-03-11T12:24:45.128Z,1014.11
2019-03-11T12:25:45.165Z,1014.27
2019-03-11T12:26:46.251Z,1014.22
2019-03-11T12:27:53.825Z,1014.16
2019-03-11T12:28:45.191Z,1014.11
2019-03-11T12:29:45.279Z,1014.16
2019-03-11T12:30:45.609Z,1014.16
2019-03-11T12:31:45.307Z,1014.16
2019-03-11T12:32:45.318Z,1014.17
2019-03-11T12:33:45.415Z,1014.14
2019-03-11T12:34:45.384Z,1014.30